Time;durP1;ratioP1;P1;durP2;ratioP2;P2;SDS_P1;SDS_P2;PMS_P1;PMS_P2;Temp;Humidity;BMP_temperature;BMP_pressure;BME280_temperature;BME280_humidity;BME280_pressure;Samples;Min_cycle;Max_cycle;Signal;HPM_P1;HPM_P2
2021/03/11 00:00:10;;;;;;;0.80;0.80;;;;;;;-0.41;69.13;100904.03;5069479;28;20653;-67
2021/03/11 00:02:41;;;;;;;124.17;41.60;;;;;;;-0.52;69.44;100890.19;5063019;28;20291;-67
2021/03/11 00:05:12;;;;;;;1.90;1.70;;;;;;;-0.55;70.35;100877.06;5058750;28;20199;-67
2021/03/11 00:07:39;;;;;;;1.80;1.20;;;;;;;-0.50;70.31;100866.44;5058534;28;20327;-66
2021/03/11 00:10:10;;;;;;;1.73;1.47;;;;;;;-0.48;69.89;100865.50;5065015;28;20199;-67
2021/03/11 00:12:38;;;;;;;1.50;1.07;;;;;;;-0.49;70.14;100847.94;5068615;28;20203;-66
2021/03/11 00:15:10;;;;;;;2.60;1.07;;;;;;;-0.54;70.26;100855.06;5062673;28;20201;-66
2021/03/11 00:17:37;;;;;;;0.83;0.70;;;;;;;-0.52;70.55;100857.69;5053647;28;20199;-67
2021/03/11 00:20:07;;;;;;;0.70;0.70;;;;;;;-0.59;70.96;100843.75;5049552;28;20198;-66
2021/03/11 00:22:34;;;;;;;0.63;0.63;;;;;;;-0.50;70.76;100834.78;5064585;28;20300;-66
2021/03/11 00:25:02;;;;;;;1.20;0.90;;;;;;;-0.91;70.80;100775.88;5064420;28;20209;-67
2021/03/11 00:27:29;;;;;;;1.00;0.87;;;;;;;-0.52;71.21;100823.41;5054291;28;20350;-66
2021/03/11 00:29:56;;;;;;;0.83;0.80;;;;;;;-0.44;70.57;100835.50;5058423;28;20251;-67
2021/03/11 00:32:24;;;;;;;2.57;1.10;;;;;;;-0.51;70.80;100804.03;5073355;28;20578;-66
2021/03/11 00:34:51;;;;;;;1.20;1.00;;;;;;;-0.38;71.03;100824.81;5072190;28;20559;-66
2021/03/11 00:37:19;;;;;;;1.70;0.70;;;;;;;-0.49;71.37;100810.13;5064027;28;20196;-66
2021/03/11 00:39:46;;;;;;;1.13;1.10;;;;;;;-0.24;70.61;100826.31;5065021;28;20208;-67
2021/03/11 00:42:14;;;;;;;1.93;0.90;;;;;;;-0.25;70.94;100821.94;5066351;28;20202;-67
2021/03/11 00:44:42;;;;;;;3.83;0.80;;;;;;;-0.31;71.27;100807.09;5058549;28;20228;-66
2021/03/11 00:47:09;;;;;;;0.80;0.80;;;;;;;-0.16;71.15;100805.88;5069873;28;20694;-67
2021/03/11 00:49:37;;;;;;;1.13;1.03;;;;;;;-0.27;71.20;100797.34;5072793;28;20221;-67
2021/03/11 00:52:05;;;;;;;3.53;0.90;;;;;;;-0.19;70.86;100784.84;5053173;28;20216;-67
2021/03/11 00:54:32;;;;;;;2.17;1.50;;;;;;;-0.23;71.50;100780.56;5071145;28;20641;-67
2021/03/11 00:56:59;;;;;;;0.80;0.80;;;;;;;-0.39;71.50;100754.50;5069394;28;20190;-66
2021/03/11 00:59:31;;;;;;;1.30;0.67;;;;;;;-0.37;72.06;100759.75;5038979;28;20195;-66
2021/03/11 01:01:58;;;;;;;2.03;1.07;;;;;;;-0.46;72.14;100742.38;5071655;28;20198;-66
2021/03/11 01:04:27;;;;;;;1.07;0.80;;;;;;;-0.41;72.18;100734.34;5072528;28;20597;-66
2021/03/11 01:06:56;;;;;;;1.40;0.83;;;;;;;-0.41;72.45;100736.97;5071227;28;20289;-67
2021/03/11 01:09:23;;;;;;;0.70;0.70;;;;;;;-0.38;72.25;100740.41;5054825;28;20232;-66
2021/03/11 01:11:51;;;;;;;3.83;0.90;;;;;;;-0.36;72.09;100717.50;5070495;28;20788;-66
2021/03/11 01:14:18;;;;;;;1.53;0.87;;;;;;;-0.35;72.13;100729.78;5072760;28;20565;-64
2021/03/11 01:16:47;;;;;;;1.40;0.90;;;;;;;-0.36;72.13;100732.47;5060270;28;20214;-65
2021/03/11 01:19:14;;;;;;;2.13;0.90;;;;;;;-0.33;71.94;100704.25;5065153;28;20198;-64
2021/03/11 01:21:41;;;;;;;1.03;0.97;;;;;;;-0.55;72.55;100679.28;5068135;28;20275;-64
2021/03/11 01:24:17;;;;;;;0.73;0.73;;;;;;;-0.62;72.69;100652.19;5072428;28;20582;-64
2021/03/11 01:26:44;;;;;;;0.93;0.87;;;;;;;-0.44;72.99;100684.31;5062916;28;20230;-64
2021/03/11 01:29:12;;;;;;;1.13;0.90;;;;;;;-0.41;72.82;100665.78;5072478;28;20282;-65
2021/03/11 01:31:39;;;;;;;0.90;0.70;;;;;;;-0.45;73.30;100656.19;5071005;28;20610;-65
2021/03/11 01:34:06;;;;;;;1.00;0.80;;;;;;;-0.41;73.54;100652.59;5072398;28;20227;-64
2021/03/11 01:36:33;;;;;;;3.10;1.20;;;;;;;-0.58;73.71;100629.28;5070362;28;20576;-65
2021/03/11 01:39:01;;;;;;;1.20;1.10;;;;;;;-0.49;74.67;100644.00;5072329;28;20211;-64
2021/03/11 01:41:29;;;;;;;2.63;1.43;;;;;;;-0.53;75.02;100634.44;5070680;28;20328;-64
2021/03/11 01:43:56;;;;;;;4.30;2.47;;;;;;;-0.73;74.55;100604.13;5072560;28;20240;-64
2021/03/11 01:46:25;;;;;;;2.33;1.30;;;;;;;-0.50;75.24;100632.59;5065868;28;20609;-64
2021/03/11 01:48:54;;;;;;;3.20;1.10;;;;;;;-0.46;75.17;100633.38;5061300;28;20667;-64
2021/03/11 01:51:22;;;;;;;2.03;1.47;;;;;;;-0.47;75.47;100634.28;5054239;28;20234;-64
2021/03/11 01:53:51;;;;;;;1.30;1.07;;;;;;;-0.54;75.33;100624.78;5042364;28;20307;-65
2021/03/11 01:56:20;;;;;;;1.33;1.00;;;;;;;-0.49;75.47;100631.69;5064204;28;20202;-64
2021/03/11 01:58:48;;;;;;;1.33;0.90;;;;;;;-0.41;74.88;100634.97;5059281;28;20234;-64
2021/03/11 02:01:15;;;;;;;1.13;1.03;;;;;;;-0.45;75.52;100635.97;5054106;28;20224;-64
2021/03/11 02:03:43;;;;;;;1.10;1.00;;;;;;;-0.73;75.13;100574.25;5044522;28;20238;-64
2021/03/11 02:06:11;;;;;;;1.70;1.17;;;;;;;-0.34;74.88;100623.38;5065145;28;20208;-64
2021/03/11 02:08:41;;;;;;;3.57;1.23;;;;;;;-0.26;74.76;100619.69;5068507;28;20195;-64
2021/03/11 02:11:13;;;;;;;1.37;1.13;;;;;;;-0.26;74.69;100623.19;5059001;28;20229;-64
2021/03/11 02:13:46;;;;;;;1.17;1.10;;;;;;;-0.52;74.52;100562.31;5064816;28;20225;-64
2021/03/11 02:16:24;;;;;;;1.50;0.90;;;;;;;-0.27;74.91;100612.69;5059744;28;20878;-64
2021/03/11 02:18:59;;;;;;;5.47;1.57;;;;;;;-0.50;74.93;100561.38;5069050;28;20201;-64
2021/03/11 02:21:31;;;;;;;1.43;1.07;;;;;;;-0.13;74.58;100592.06;5070408;28;20206;-64
2021/03/11 02:24:28;;;;;;;1.00;1.00;;;;;;;-0.11;74.70;100587.63;5058106;28;20222;-64
2021/03/11 02:27:06;;;;;;;3.30;2.17;;;;;;;-0.13;74.98;100576.25;5063410;28;20244;-64
2021/03/11 02:29:37;;;;;;;1.43;1.30;;;;;;;-0.01;74.29;100568.84;5059443;28;20201;-65
2021/03/11 02:32:07;;;;;;;7.10;1.53;;;;;;;-0.06;74.31;100561.97;5056271;28;20313;-64
2021/03/11 02:34:38;;;;;;;1.23;0.90;;;;;;;-0.02;73.84;100545.13;5059762;28;20517;-65
2021/03/11 02:37:10;;;;;;;6.27;0.90;;;;;;;0.05;73.39;100549.38;5069614;28;20639;-65
2021/03/11 02:39:41;;;;;;;1.43;1.10;;;;;;;0.09;73.31;100529.88;5061870;28;20673;-65
2021/03/11 02:42:10;;;;;;;1.03;1.00;;;;;;;0.09;72.82;100529.88;5064309;28;20223;-66
2021/03/11 02:44:40;;;;;;;1.37;0.90;;;;;;;0.09;72.78;100513.19;5070993;28;20704;-65
2021/03/11 02:47:08;;;;;;;2.50;0.93;;;;;;;0.11;72.99;100501.66;5051089;28;20667;-65
2021/03/11 02:49:36;;;;;;;7.20;1.37;;;;;;;0.14;72.30;100504.22;5055972;28;20204;-65
2021/03/11 02:52:05;;;;;;;3.80;0.97;;;;;;;0.11;72.66;100482.31;5069426;28;20206;-64
2021/03/11 02:54:32;;;;;;;0.93;0.90;;;;;;;0.13;71.97;100498.97;5070150;28;20204;-64
2021/03/11 02:57:02;;;;;;;2.30;0.87;;;;;;;0.22;72.27;100496.06;5058317;28;20191;-64
2021/03/11 02:59:30;;;;;;;1.83;1.10;;;;;;;0.36;71.81;100480.69;5070317;28;20336;-66
2021/03/11 03:02:00;;;;;;;2.03;0.90;;;;;;;0.33;71.57;100479.91;5058963;28;20244;-64
2021/03/11 03:04:28;;;;;;;1.10;1.00;;;;;;;0.28;71.21;100466.84;5070367;28;20222;-67
2021/03/11 03:07:00;;;;;;;4.43;0.87;;;;;;;0.17;71.46;100437.25;5061349;28;20410;-64
2021/03/11 03:09:27;;;;;;;0.73;0.70;;;;;;;0.23;71.34;100437.94;5052908;28;20227;-65
2021/03/11 03:11:56;;;;;;;0.93;0.77;;;;;;;0.33;71.20;100435.03;5059977;28;20248;-65
2021/03/11 03:14:24;;;;;;;5.50;0.97;;;;;;;0.33;71.78;100421.84;5057797;28;20191;-65
2021/03/11 03:16:53;;;;;;;1.17;0.93;;;;;;;0.22;71.47;100399.25;5054708;28;20281;-64
2021/03/11 03:19:22;;;;;;;1.60;1.10;;;;;;;0.21;72.02;100423.91;5050414;28;20225;-65
2021/03/11 03:21:51;;;;;;;1.60;0.80;;;;;;;0.33;71.74;100412.13;5064794;28;20257;-65
2021/03/11 03:24:19;;;;;;;1.37;1.10;;;;;;;0.25;71.09;100383.31;5055021;28;20722;-65
2021/03/11 03:26:46;;;;;;;2.43;1.33;;;;;;;0.44;71.21;100390.66;5069169;28;20246;-65
2021/03/11 03:29:14;;;;;;;1.63;1.27;;;;;;;0.05;71.68;100356.69;5070276;28;20253;-64
2021/03/11 03:31:42;;;;;;;0.83;0.83;;;;;;;0.43;71.34;100370.44;5057073;28;20192;-64
2021/03/11 03:34:09;;;;;;;410.27;140.97;;;;;;;0.29;71.70;100369.09;5061658;28;20189;-64
2021/03/11 03:36:37;;;;;;;1.73;1.30;;;;;;;0.29;71.97;100358.53;5054620;28;20226;-67
2021/03/11 03:39:05;;;;;;;1.43;1.00;;;;;;;0.45;71.84;100342.19;5049317;28;20198;-67
2021/03/11 03:41:37;;;;;;;3.60;0.90;;;;;;;0.43;71.63;100344.91;5051952;28;20680;-67
2021/03/11 03:44:07;;;;;;;0.93;0.77;;;;;;;0.41;71.82;100328.25;5046038;28;20238;-67
2021/03/11 03:46:35;;;;;;;0.87;0.87;;;;;;;0.35;72.36;100314.38;5066617;28;20206;-67
2021/03/11 03:49:04;;;;;;;1.13;1.00;;;;;;;0.37;72.35;100310.78;5051992;28;20203;-67
2021/03/11 03:51:34;;;;;;;1.00;0.90;;;;;;;0.38;72.65;100304.56;5062885;28;20200;-67
2021/03/11 03:54:10;;;;;;;1.20;1.10;;;;;;;0.25;72.63;100246.00;5057113;28;20204;-66
2021/03/11 03:56:39;;;;;;;1.57;1.10;;;;;;;0.46;72.89;100285.81;5065177;28;20191;-67
2021/03/11 03:59:10;;;;;;;1.27;1.00;;;;;;;0.50;72.91;100272.47;5068390;28;20284;-67
2021/03/11 04:01:38;;;;;;;2.13;1.30;;;;;;;0.46;72.93;100265.56;5064364;28;20260;-67
2021/03/11 04:04:08;;;;;;;0.80;0.80;;;;;;;0.46;72.84;100259.41;5069338;28;20227;-67
2021/03/11 04:06:39;;;;;;;1.27;1.17;;;;;;;0.44;73.34;100259.47;5052403;28;20206;-65
2021/03/11 04:09:10;;;;;;;1.27;1.17;;;;;;;0.51;73.31;100241.63;5049876;28;20220;-65
2021/03/11 04:11:39;;;;;;;3.00;1.10;;;;;;;0.39;73.33;100227.09;5053624;28;20186;-65
2021/03/11 04:14:09;;;;;;;1.10;0.93;;;;;;;0.54;73.24;100231.81;5061571;28;20213;-64
2021/03/11 04:16:37;;;;;;;3.90;1.30;;;;;;;0.64;73.40;100224.44;5056834;28;20295;-64
2021/03/11 04:19:05;;;;;;;1.60;1.30;;;;;;;0.70;73.04;100221.59;5056112;28;20185;-66
2021/03/11 04:21:35;;;;;;;4.23;1.13;;;;;;;0.82;72.78;100223.75;5059562;28;20228;-65
2021/03/11 04:24:03;;;;;;;1.00;1.00;;;;;;;0.83;72.50;100220.22;5057652;28;20223;-65
2021/03/11 04:26:35;;;;;;;1.17;1.07;;;;;;;0.88;72.79;100209.47;5068056;28;20237;-67
2021/03/11 04:29:03;;;;;;;2.87;1.70;;;;;;;0.97;72.25;100203.84;5067422;28;20195;-67
2021/03/11 04:31:30;;;;;;;2.03;1.30;;;;;;;0.98;72.60;100210.00;5071650;28;20697;-67
2021/03/11 04:33:59;;;;;;;3.07;1.27;;;;;;;0.97;72.74;100200.34;5052878;28;20277;-67
2021/03/11 04:36:27;;;;;;;3.17;1.63;;;;;;;0.85;72.69;100188.44;5059143;28;20200;-67
2021/03/11 04:38:55;;;;;;;2.33;1.20;;;;;;;1.00;72.67;100192.31;5067457;28;20643;-67
2021/03/11 04:41:26;;;;;;;5.33;1.50;;;;;;;0.99;73.10;100185.28;5050736;28;20197;-65
2021/03/11 04:43:55;;;;;;;5.50;1.30;;;;;;;0.97;73.17;100171.28;5052652;28;20225;-67
2021/03/11 04:46:23;;;;;;;2.00;1.53;;;;;;;1.00;73.22;100177.31;5053963;28;20204;-66
2021/03/11 04:48:54;;;;;;;3.40;1.87;;;;;;;0.84;73.63;100137.38;5058459;28;20493;-67
2021/03/11 04:51:22;;;;;;;3.90;1.47;;;;;;;1.04;73.40;100133.97;5064740;28;20279;-67
2021/03/11 04:53:54;;;;;;;2.67;1.77;;;;;;;1.07;73.66;100133.00;5060238;28;20246;-67
2021/03/11 04:56:22;;;;;;;3.87;1.40;;;;;;;1.13;73.40;100120.38;5062367;28;20199;-66
2021/03/11 04:58:50;;;;;;;8.33;1.70;;;;;;;1.19;73.01;100119.28;5050952;28;20200;-67
2021/03/11 05:01:36;;;;;;;2.20;2.00;;;;;;;0.87;73.55;100060.59;5055631;28;20212;-67
2021/03/11 05:04:06;;;;;;;9.43;2.07;;;;;;;1.15;73.96;100093.88;5067844;28;20227;-64
2021/03/11 05:06:33;;;;;;;2.83;1.53;;;;;;;1.17;73.75;100094.69;5056691;28;20192;-67
2021/03/11 05:09:01;;;;;;;2.87;1.77;;;;;;;1.18;74.00;100086.69;5057274;28;20663;-67
2021/03/11 05:11:28;;;;;;;7.50;4.13;;;;;;;1.30;73.43;100084.50;5052692;28;20204;-68
2021/03/11 05:13:55;;;;;;;4.30;2.20;;;;;;;1.19;73.92;100071.69;5065549;28;20227;-64
2021/03/11 05:16:23;;;;;;;2.93;1.73;;;;;;;1.26;73.87;100062.59;5059641;28;20294;-67
2021/03/11 05:18:51;;;;;;;4.30;2.10;;;;;;;1.29;74.17;100043.97;5060250;28;20219;-66
2021/03/11 05:21:18;;;;;;;8.60;2.47;;;;;;;1.21;74.44;100051.31;5057977;28;20725;-64
2021/03/11 05:23:56;;;;;;;6.90;2.43;;;;;;;1.31;74.34;100026.25;5059311;28;20312;-67
2021/03/11 05:26:24;;;;;;;6.47;1.90;;;;;;;1.31;74.52;100018.31;5039804;28;20244;-64
2021/03/11 05:28:51;;;;;;;4.50;2.27;;;;;;;1.34;74.59;100012.03;5055825;28;20197;-66
2021/03/11 05:31:18;;;;;;;4.43;2.10;;;;;;;1.38;74.71;100019.78;5056823;28;20223;-66
2021/03/11 05:33:46;;;;;;;5.37;2.30;;;;;;;1.42;74.72;100008.13;5054566;28;20709;-64
2021/03/11 05:36:14;;;;;;;7.83;2.63;;;;;;;1.26;74.58;99983.28;5056167;28;20224;-64
2021/03/11 05:38:44;;;;;;;5.33;2.43;;;;;;;1.49;74.24;100017.53;5058354;28;20201;-65
2021/03/11 05:41:12;;;;;;;5.40;2.07;;;;;;;1.62;73.71;100006.44;5054283;28;20623;-65
2021/03/11 05:43:41;;;;;;;3.70;2.47;;;;;;;1.61;73.92;100005.56;5059201;28;20311;-64
2021/03/11 05:46:10;;;;;;;4.93;2.73;;;;;;;1.66;73.70;99989.50;5052528;28;20208;-64
2021/03/11 05:48:40;;;;;;;7.90;3.30;;;;;;;1.64;73.92;99994.00;5054160;28;20204;-66
2021/03/11 05:51:09;;;;;;;8.13;2.47;;;;;;;1.58;74.25;100000.41;5055180;28;20655;-64
2021/03/11 05:53:37;;;;;;;6.93;2.63;;;;;;;1.61;74.48;99970.31;5048343;28;20200;-64
2021/03/11 05:56:06;;;;;;;12.17;3.10;;;;;;;1.55;74.44;99974.97;5055361;28;20207;-65
2021/03/11 05:58:33;;;;;;;9.47;3.53;;;;;;;1.35;74.18;99922.06;5054348;28;20207;-65
2021/03/11 06:01:01;;;;;;;6.63;3.10;;;;;;;1.62;74.17;99933.22;5056066;28;20207;-64
2021/03/11 06:03:32;;;;;;;4.93;2.80;;;;;;;1.53;74.49;99928.31;5062412;28;20280;-64
2021/03/11 06:06:01;;;;;;;5.93;2.70;;;;;;;1.64;74.56;99919.91;5061625;28;20196;-65
2021/03/11 06:08:29;;;;;;;7.47;3.03;;;;;;;1.66;74.13;99902.19;5067579;28;20230;-65
2021/03/11 06:10:59;;;;;;;8.53;3.87;;;;;;;1.71;73.62;99905.47;5057451;28;20199;-65
2021/03/11 06:13:27;;;;;;;7.17;2.87;;;;;;;1.77;73.66;99889.31;5070472;28;20209;-65
2021/03/11 06:16:00;;;;;;;7.87;3.03;;;;;;;1.73;73.77;99893.88;5051536;28;20280;-65
2021/03/11 06:18:31;;;;;;;7.33;3.50;;;;;;;1.74;73.30;99900.91;5055782;28;20292;-64
2021/03/11 06:20:59;;;;;;;8.80;3.60;;;;;;;1.71;73.06;99886.94;5043888;28;20205;-64
2021/03/11 06:23:27;;;;;;;7.97;3.40;;;;;;;1.76;73.06;99877.88;5052730;28;20203;-64
2021/03/11 06:25:57;;;;;;;7.57;3.50;;;;;;;1.83;72.44;99860.78;5060790;28;20210;-64
2021/03/11 06:28:50;;;;;;;10.53;3.03;;;;;;;1.92;71.87;99856.00;5062847;28;20675;-64
2021/03/11 06:31:18;;;;;;;8.37;3.23;;;;;;;1.94;71.56;99849.69;5057335;28;20638;-67
2021/03/11 06:33:48;;;;;;;12.57;4.00;;;;;;;1.96;71.28;99858.44;5059638;28;20310;-65
2021/03/11 06:36:17;;;;;;;10.37;3.93;;;;;;;2.01;71.05;99847.63;5059863;28;20227;-67
2021/03/11 06:38:44;;;;;;;11.33;3.97;;;;;;;2.15;70.16;99839.91;5060425;28;20196;-67
2021/03/11 06:41:12;;;;;;;7.80;3.73;;;;;;;2.04;69.66;99847.47;5052039;28;20204;-67
2021/03/11 06:43:54;;;;;;;8.90;3.57;;;;;;;2.09;69.06;99827.78;5062114;28;20295;-67
2021/03/11 06:46:23;;;;;;;9.83;4.10;;;;;;;2.20;68.61;99819.34;5055294;28;20681;-65
2021/03/11 06:49:04;;;;;;;10.43;4.23;;;;;;;2.21;68.06;99807.81;5062305;28;20200;-65
2021/03/11 06:51:31;;;;;;;15.57;4.50;;;;;;;2.17;67.37;99799.16;5057577;28;20236;-67
2021/03/11 06:54:01;;;;;;;8.90;3.93;;;;;;;2.30;66.80;99809.16;5062455;28;20262;-65
2021/03/11 06:56:29;;;;;;;9.87;4.13;;;;;;;2.05;66.69;99733.53;5039755;28;20248;-65
2021/03/11 06:58:58;;;;;;;10.03;3.73;;;;;;;2.36;66.62;99772.59;5067265;28;20280;-64
2021/03/11 07:01:26;;;;;;;11.83;4.40;;;;;;;2.42;65.99;99772.28;5052400;28;20288;-67
2021/03/11 07:03:53;;;;;;;10.30;4.27;;;;;;;2.57;66.43;99788.38;5067316;28;20216;-66
2021/03/11 07:06:33;;;;;;;18.67;6.00;;;;;;;2.45;64.96;99780.13;5061457;28;20202;-66
2021/03/11 07:09:01;;;;;;;10.83;4.20;;;;;;;2.50;65.11;99766.63;5058537;28;20200;-67
2021/03/11 07:11:30;;;;;;;11.20;4.60;;;;;;;2.69;65.11;99764.75;5035540;28;20305;-67
2021/03/11 07:13:59;;;;;;;11.87;5.13;;;;;;;2.80;65.72;99743.88;5063920;28;20219;-65
2021/03/11 07:16:27;;;;;;;9.27;3.60;;;;;;;2.74;63.52;99724.75;5063137;28;20296;-65
2021/03/11 07:19:12;;;;;;;10.20;3.90;;;;;;;2.63;63.13;99730.63;5057787;28;20284;-66
2021/03/11 07:21:41;;;;;;;8.30;3.57;;;;;;;2.76;63.55;99728.19;5058001;28;20316;-65
2021/03/11 07:24:09;;;;;;;10.13;3.77;;;;;;;2.84;63.56;99731.31;5060629;28;20242;-65
2021/03/11 07:26:37;;;;;;;8.77;4.03;;;;;;;2.72;61.90;99735.44;5057313;28;20233;-65
2021/03/11 07:29:17;;;;;;;9.80;4.47;;;;;;;2.80;62.17;99749.16;5047738;28;20201;-65
2021/03/11 07:31:45;;;;;;;10.63;3.43;;;;;;;2.75;61.33;99727.31;5061919;28;20623;-65
2021/03/11 07:34:13;;;;;;;14.27;6.07;;;;;;;2.79;62.20;99712.13;5057447;28;20260;-65
2021/03/11 07:36:41;;;;;;;11.50;4.17;;;;;;;2.82;62.83;99705.81;5061349;28;20213;-65
2021/03/11 07:39:10;;;;;;;8.23;4.13;;;;;;;2.80;60.65;99714.69;5069885;28;20196;-65
2021/03/11 07:41:38;;;;;;;10.13;4.10;;;;;;;2.87;61.41;99719.66;5066536;28;20647;-65
2021/03/11 07:44:06;;;;;;;10.70;4.50;;;;;;;2.70;61.35;99704.63;5063605;28;20287;-65
2021/03/11 07:46:35;;;;;;;11.93;4.93;;;;;;;2.83;61.44;99716.34;5061015;28;20736;-64
2021/03/11 07:49:03;;;;;;;10.10;4.40;;;;;;;2.75;61.08;99711.41;5057241;28;20212;-65
2021/03/11 07:51:31;;;;;;;11.57;4.47;;;;;;;2.79;60.62;99693.56;5053060;28;20568;-65
2021/03/11 07:54:00;;;;;;;18.87;4.13;;;;;;;2.89;60.47;99680.69;5045666;28;20193;-65
2021/03/11 07:56:27;;;;;;;13.13;4.70;;;;;;;2.83;60.00;99675.72;5065364;28;20299;-65
2021/03/11 07:59:09;;;;;;;9.53;3.70;;;;;;;2.94;60.82;99681.28;5068000;28;20303;-67
2021/03/11 08:01:46;;;;;;;15.87;4.13;;;;;;;2.91;59.93;99684.97;5065491;28;20193;-66
2021/03/11 08:04:21;;;;;;;10.03;3.67;;;;;;;2.85;60.14;99679.13;5064867;28;20215;-67
2021/03/11 08:06:49;;;;;;;13.37;4.30;;;;;;;2.76;58.56;99668.09;5056049;28;20279;-66
2021/03/11 08:09:37;;;;;;;10.23;4.80;;;;;;;2.78;58.90;99663.56;5059661;28;20620;-66
2021/03/11 08:12:30;;;;;;;8.87;3.53;;;;;;;2.98;60.34;99651.00;5049715;28;20209;-66
2021/03/11 08:15:00;;;;;;;12.13;4.00;;;;;;;2.88;58.52;99652.47;5053786;28;20213;-66
2021/03/11 08:17:39;;;;;;;7.10;3.70;;;;;;;2.72;58.94;99655.06;5065773;28;20211;-66
2021/03/11 08:20:07;;;;;;;10.20;3.73;;;;;;;2.78;58.62;99634.41;5067908;28;20279;-66
2021/03/11 08:23:03;;;;;;;9.67;3.90;;;;;;;2.72;57.83;99602.91;5044382;28;20211;-64
2021/03/11 08:25:41;;;;;;;9.63;4.57;;;;;;;2.71;57.33;99617.09;5063234;28;20303;-66
2021/03/11 08:28:37;;;;;;;7.23;3.20;;;;;;;2.73;56.85;99603.75;5067765;28;20717;-64
2021/03/11 08:31:08;;;;;;;8.33;4.40;;;;;;;2.72;57.32;99604.69;5065440;28;20259;-63
2021/03/11 08:33:45;;;;;;;10.87;3.70;;;;;;;2.66;58.10;99574.09;5069089;28;20282;-66
2021/03/11 08:36:39;;;;;;;9.57;3.80;;;;;;;2.74;57.17;99574.53;5063787;28;20839;-66
2021/03/11 08:39:32;;;;;;;10.97;4.07;;;;;;;2.87;58.17;99555.31;5038508;28;20199;-66
2021/03/11 08:42:15;;;;;;;8.23;3.67;;;;;;;2.62;57.21;99524.84;5046350;28;20209;-66
2021/03/11 08:44:45;;;;;;;16.30;4.07;;;;;;;2.41;56.51;99499.53;5062362;28;20221;-66
2021/03/11 08:47:14;;;;;;;8.43;3.30;;;;;;;2.83;56.22;99530.78;5051238;28;20248;-66
2021/03/11 08:49:49;;;;;;;10.20;3.50;;;;;;;2.83;56.91;99500.75;5072196;28;20204;-66
2021/03/11 08:52:39;;;;;;;8.03;3.37;;;;;;;2.91;55.62;99540.94;5070655;28;20706;-66
2021/03/11 08:55:46;;;;;;;10.37;3.03;;;;;;;2.91;56.00;99488.78;5064220;28;20189;-66
2021/03/11 08:58:27;;;;;;;10.30;4.40;;;;;;;2.89;55.24;99481.84;5070455;28;20197;-66
2021/03/11 09:01:02;;;;;;;13.43;4.23;;;;;;;2.80;55.35;99462.03;5064663;28;20679;-66
2021/03/11 09:03:51;;;;;;;14.00;5.20;;;;;;;2.97;55.18;99472.50;5066860;28;20197;-66
2021/03/11 09:06:20;;;;;;;8.53;3.87;;;;;;;2.79;55.59;99409.97;5059625;28;20308;-66
2021/03/11 09:08:52;;;;;;;14.87;5.10;;;;;;;3.05;55.60;99432.28;5044959;28;20205;-66
2021/03/11 09:11:21;;;;;;;15.87;5.07;;;;;;;3.03;55.80;99412.97;5062101;28;20201;-66
2021/03/11 09:13:51;;;;;;;9.37;4.47;;;;;;;3.02;55.56;99414.75;5068779;28;20620;-66
2021/03/11 09:16:23;;;;;;;24.77;8.30;;;;;;;3.06;55.49;99399.53;5065299;28;20611;-65
2021/03/11 09:18:54;;;;;;;15.30;5.90;;;;;;;3.17;55.56;99399.75;5066117;28;20826;-65
2021/03/11 09:21:22;;;;;;;19.07;6.90;;;;;;;3.27;55.46;99392.09;5061233;28;20204;-64
2021/03/11 09:23:49;;;;;;;13.00;5.33;;;;;;;3.35;56.00;99393.34;5066454;28;20196;-66
2021/03/11 09:26:27;;;;;;;16.83;6.67;;;;;;;3.33;55.79;99381.97;5041853;28;20308;-65
2021/03/11 09:28:55;;;;;;;23.77;6.20;;;;;;;3.35;56.19;99384.53;5061516;28;20285;-65
2021/03/11 09:31:24;;;;;;;19.70;6.30;;;;;;;3.38;56.77;99371.97;5051955;28;20252;-65
2021/03/11 09:33:51;;;;;;;15.90;6.37;;;;;;;3.36;56.84;99389.75;5065639;28;20205;-65
2021/03/11 09:36:19;;;;;;;23.47;8.30;;;;;;;3.11;56.65;99302.00;5048516;28;20627;-65
2021/03/11 09:38:48;;;;;;;22.03;6.43;;;;;;;3.62;57.13;99358.13;5053534;28;20198;-65
2021/03/11 09:41:24;;;;;;;18.73;7.13;;;;;;;3.62;57.13;99342.19;5064925;28;20210;-65
2021/03/11 09:43:52;;;;;;;20.23;7.07;;;;;;;3.59;57.02;99358.31;5040212;28;20645;-66
2021/03/11 09:46:20;;;;;;;19.63;7.33;;;;;;;3.50;56.99;99329.69;5060433;28;20210;-65
2021/03/11 09:48:50;;;;;;;20.57;6.77;;;;;;;3.56;57.11;99346.09;5071297;28;20190;-65
2021/03/11 09:51:20;;;;;;;22.83;6.57;;;;;;;3.64;57.70;99313.75;5063961;28;20211;-65
2021/03/11 09:53:50;;;;;;;19.30;6.80;;;;;;;3.73;56.88;99323.81;5065360;28;21355;-65
2021/03/11 09:56:19;;;;;;;15.80;7.33;;;;;;;3.74;57.65;99325.53;5064068;28;20538;-65
2021/03/11 09:58:50;;;;;;;20.60;7.67;;;;;;;3.78;57.64;99305.78;5062316;28;20216;-65
2021/03/11 10:01:27;;;;;;;16.27;6.47;;;;;;;3.80;57.11;99309.19;5054613;28;20263;-64
2021/03/11 10:03:55;;;;;;;23.93;7.40;;;;;;;3.84;57.50;99286.81;5051679;28;20672;-64
2021/03/11 10:06:24;;;;;;;21.07;7.80;;;;;;;3.82;57.77;99278.09;5056654;28;20197;-64
2021/03/11 10:08:56;;;;;;;19.17;7.80;;;;;;;3.79;58.10;99262.38;5047861;28;20593;-64
2021/03/11 10:11:29;;;;;;;17.90;7.23;;;;;;;3.76;57.77;99254.59;5047624;28;20198;-64
2021/03/11 10:14:01;;;;;;;21.33;8.27;;;;;;;3.74;58.29;99285.69;5066913;28;20251;-64
2021/03/11 10:16:43;;;;;;;14.97;6.60;;;;;;;3.78;58.16;99252.69;5064869;28;20209;-64
2021/03/11 10:19:15;;;;;;;23.63;7.97;;;;;;;3.69;58.44;99237.38;5069761;28;20193;-64
2021/03/11 10:21:51;;;;;;;17.90;8.57;;;;;;;3.65;59.25;99235.81;5062076;28;20203;-63
2021/03/11 10:24:37;;;;;;;29.67;8.47;;;;;;;3.78;59.55;99225.28;5062668;28;20221;-64
2021/03/11 10:27:16;;;;;;;40.67;11.63;;;;;;;3.80;59.27;99212.78;5065269;28;20228;-64
2021/03/11 10:29:43;;;;;;;24.50;8.00;;;;;;;3.60;60.10;99206.09;5063102;28;20228;-63
2021/03/11 10:32:11;;;;;;;22.67;8.40;;;;;;;3.39;60.42;99179.13;5064598;28;20295;-64
2021/03/11 10:34:46;;;;;;;19.33;7.70;;;;;;;3.37;61.34;99171.28;5062164;28;20200;-63
2021/03/11 10:37:24;;;;;;;31.07;10.97;;;;;;;3.32;62.76;99197.22;5047843;28;20197;-64
2021/03/11 10:39:53;;;;;;;26.90;9.20;;;;;;;3.28;62.99;99178.94;5070050;28;20276;-64
2021/03/11 10:42:20;;;;;;;25.87;9.17;;;;;;;3.22;64.93;99185.50;5063243;28;20205;-63
2021/03/11 10:44:56;;;;;;;28.67;10.30;;;;;;;2.95;66.39;99160.69;5068049;28;20323;-64
2021/03/11 10:47:23;;;;;;;29.20;9.33;;;;;;;2.96;67.85;99157.94;5041038;28;20201;-63
2021/03/11 10:49:51;;;;;;;48.00;17.80;;;;;;;3.02;68.29;99151.41;5061805;28;20284;-63
2021/03/11 10:52:19;;;;;;;32.40;12.03;;;;;;;2.84;70.28;99134.03;5055463;28;20239;-63
2021/03/11 10:54:46;;;;;;;28.23;10.07;;;;;;;2.66;71.99;99126.25;5063100;28;20638;-63
2021/03/11 10:57:17;;;;;;;24.70;10.50;;;;;;;2.53;73.14;99109.41;5062677;28;20194;-63
2021/03/11 11:00:03;;;;;;;27.83;10.23;;;;;;;2.52;73.97;99113.00;5064657;28;20279;-64
2021/03/11 11:02:31;;;;;;;27.33;10.03;;;;;;;2.44;74.63;99110.81;5062304;28;20201;-63
2021/03/11 11:04:58;;;;;;;28.87;9.47;;;;;;;2.37;75.60;99095.38;5062281;28;20233;-64
2021/03/11 11:07:27;;;;;;;21.23;8.60;;;;;;;2.33;76.02;99070.03;5068765;28;20205;-63
2021/03/11 11:09:55;;;;;;;26.83;10.13;;;;;;;2.16;77.22;99045.47;5068910;28;20196;-64
2021/03/11 11:12:22;;;;;;;26.67;11.33;;;;;;;2.09;77.77;99070.56;5062201;28;20205;-63
2021/03/11 11:14:51;;;;;;;24.73;8.90;;;;;;;2.13;77.59;99037.66;5061527;28;20189;-63
2021/03/11 11:17:19;;;;;;;21.53;9.03;;;;;;;2.00;78.73;99022.63;5059614;28;20279;-64
2021/03/11 11:19:46;;;;;;;25.80;8.97;;;;;;;2.11;78.41;99028.13;5064729;28;20651;-63
2021/03/11 11:22:14;;;;;;;22.40;9.80;;;;;;;2.03;78.88;99025.09;5062199;28;20651;-63
2021/03/11 11:24:42;;;;;;;24.97;9.17;;;;;;;1.93;79.31;99006.28;5062252;28;20248;-63
2021/03/11 11:27:11;;;;;;;33.53;9.13;;;;;;;1.86;79.99;99004.97;5059255;28;20234;-63
2021/03/11 11:29:38;;;;;;;26.27;9.07;;;;;;;1.92;79.68;98986.06;5064329;28;20197;-63
2021/03/11 11:32:06;;;;;;;26.77;9.73;;;;;;;1.89;79.45;98973.03;5062013;28;20220;-64
2021/03/11 11:34:34;;;;;;;21.53;8.80;;;;;;;1.65;79.70;98948.03;5060394;28;20196;-63
2021/03/11 11:37:01;;;;;;;33.87;11.30;;;;;;;1.88;79.81;98952.78;5063628;28;20567;-63
2021/03/11 11:39:29;;;;;;;27.67;9.17;;;;;;;1.90;80.19;98942.97;5067537;28;20200;-64
2021/03/11 11:41:57;;;;;;;33.17;11.83;;;;;;;1.80;80.64;98950.59;5061645;28;20204;-64
2021/03/11 11:44:24;;;;;;;27.17;10.77;;;;;;;1.75;81.30;98933.31;5045510;28;20556;-64
2021/03/11 11:46:51;;;;;;;28.83;10.27;;;;;;;1.70;81.70;98917.72;5058110;28;20553;-63